Terminal Aerodrome Forecast
Issued by NWS

Home | Current Version | Previous Version | Text Only | Print | Product List | Glossary Off
Versions: 1 2 3 4 5 6 7 8 9 10 11 12 13 14 15 16 17 18 19

000
FTUS43 KGRB 281100
TAFAUW
TAF
KAUW 281137Z 2812/2912 VRB03KT P6SM SCT004 SCT010
      TEMPO 2812/2815 3SM BR BKN004 BKN010
     FM281600 15007KT P6SM SCT015 OVC200
     FM282100 14008KT P6SM OVC050
     FM290100 12007KT 4SM -SHRA BR OVC025
     FM290500 12004KT 3SM SHRA OVC015 PROB30 2906/2912 1SM TSRA
      BKN009CB=

USA.gov is the U.S. government's official web portal to all federal, state and local government web resources and services.